Time,TemperatureF,DewpointF,PressureIn,WindDirection,WindDirectionDegrees,WindSpeedMPH,WindSpeedGustMPH,Humidity,HourlyPrecipIn,Conditions,Clouds,dailyrainin,SolarRadiationWatts/m^2,SoftwareType,DateUTC
2013-05-04 00:01:00,54.0,46.9,30.08,East,84,1.0,3.0,77,0.00,,,0.00,0.0,meteohub,2013-05-04 04:01:00,
2013-05-04 00:06:00,53.4,46.0,30.08,East,84,2.0,3.0,76,0.00,,,0.00,0.0,meteohub,2013-05-04 04:06:00,
2013-05-04 00:11:00,52.2,45.5,30.08,East,84,1.0,2.0,78,0.00,,,0.00,0.0,meteohub,2013-05-04 04:11:00,
2013-05-04 00:16:00,50.9,45.0,30.08,East,84,2.0,2.0,80,0.00,,,0.00,0.0,meteohub,2013-05-04 04:16:00,
2013-05-04 00:22:00,50.0,44.8,30.09,East,84,1.0,2.0,82,0.00,,,0.00,0.0,meteohub,2013-05-04 04:22:00,
2013-05-04 00:27:00,49.6,44.8,30.09,East,84,1.0,2.0,83,0.00,,,0.00,0.0,meteohub,2013-05-04 04:27:00,
2013-05-04 00:32:00,49.3,44.6,30.09,East,84,1.0,2.0,84,0.00,,,0.00,0.0,meteohub,2013-05-04 04:32:00,
2013-05-04 00:37:00,48.9,44.6,30.09,East,84,1.0,2.0,85,0.00,,,0.00,0.0,meteohub,2013-05-04 04:37:00,
2013-05-04 00:42:00,48.7,44.4,30.08,East,84,0.0,2.0,85,0.00,,,0.00,0.0,meteohub,2013-05-04 04:42:00,
2013-05-04 00:47:00,48.6,44.6,30.09,East,84,0.0,2.0,86,0.00,,,0.00,0.0,meteohub,2013-05-04 04:47:00,
2013-05-04 00:52:00,48.4,44.4,30.09,East,84,1.0,1.0,86,0.00,,,0.00,0.0,meteohub,2013-05-04 04:52:00,
2013-05-04 00:57:00,48.2,44.6,30.09,East,84,1.0,2.0,87,0.00,,,0.00,0.0,meteohub,2013-05-04 04:57:00,
2013-05-04 01:02:00,47.8,44.2,30.09,East,84,1.0,2.0,87,0.00,,,0.00,0.0,meteohub,2013-05-04 05:02:00,
2013-05-04 01:07:00,47.8,44.4,30.09,East,84,1.0,2.0,88,0.00,,,0.00,0.0,meteohub,2013-05-04 05:07:00,
2013-05-04 01:12:00,47.7,44.2,30.09,East,84,1.0,2.0,88,0.00,,,0.00,0.0,meteohub,2013-05-04 05:12:00,
2013-05-04 01:17:00,47.5,44.1,30.09,East,84,1.0,2.0,88,0.00,,,0.00,0.0,meteohub,2013-05-04 05:17:00,
2013-05-04 01:22:00,47.5,44.1,30.09,East,84,1.0,1.0,88,0.00,,,0.00,0.0,meteohub,2013-05-04 05:22:00,
2013-05-04 01:27:00,47.1,43.7,30.09,East,84,0.0,1.0,88,0.00,,,0.00,0.0,meteohub,2013-05-04 05:27:00,
2013-05-04 01:32:00,46.9,43.9,30.09,East,84,1.0,2.0,89,0.00,,,0.00,0.0,meteohub,2013-05-04 05:32:00,
2013-05-04 01:37:00,46.8,43.7,30.09,East,84,1.0,2.0,89,0.00,,,0.00,0.0,meteohub,2013-05-04 05:37:00,
2013-05-04 01:42:00,46.6,43.9,30.09,East,84,0.0,2.0,90,0.00,,,0.00,0.0,meteohub,2013-05-04 05:42:00,
2013-05-04 01:47:00,46.6,43.9,30.09,East,84,0.0,2.0,90,0.00,,,0.00,0.0,meteohub,2013-05-04 05:47:00,
2013-05-04 01:52:00,46.2,43.5,30.09,East,84,0.0,1.0,90,0.00,,,0.00,0.0,meteohub,2013-05-04 05:52:00,
2013-05-04 01:57:00,46.2,43.7,30.09,East,84,1.0,1.0,91,0.00,,,0.00,0.0,meteohub,2013-05-04 05:57:00,
2013-05-04 02:02:00,46.0,43.5,30.09,East,84,1.0,2.0,91,0.00,,,0.00,0.0,meteohub,2013-05-04 06:02:00,
2013-05-04 02:07:00,46.0,43.5,30.09,East,84,1.0,2.0,91,0.00,,,0.00,0.0,meteohub,2013-05-04 06:07:00,
2013-05-04 02:12:00,45.9,43.3,30.09,East,84,1.0,2.0,91,0.00,,,0.00,0.0,meteohub,2013-05-04 06:12:00,
2013-05-04 02:17:00,45.9,43.7,30.09,East,84,0.0,1.0,92,0.00,,,0.00,0.0,meteohub,2013-05-04 06:17:00,
2013-05-04 02:22:00,46.2,44.2,30.09,East,84,1.0,1.0,93,0.00,,,0.00,0.0,meteohub,2013-05-04 06:22:00,
2013-05-04 02:27:00,46.6,44.4,30.09,East,84,0.0,1.0,92,0.00,,,0.00,0.0,meteohub,2013-05-04 06:27:00,
2013-05-04 02:32:00,46.6,44.1,30.09,East,84,0.0,1.0,91,0.00,,,0.00,0.0,meteohub,2013-05-04 06:32:00,
2013-05-04 02:37:00,46.2,43.7,30.09,East,84,1.0,2.0,91,0.00,,,0.00,0.0,meteohub,2013-05-04 06:37:00,
2013-05-04 02:42:00,46.2,43.7,30.09,ENE,78,1.0,2.0,91,0.00,,,0.00,0.0,meteohub,2013-05-04 06:42:00,
2013-05-04 02:47:00,46.6,44.1,30.09,ESE,113,2.0,3.0,91,0.00,,,0.00,0.0,meteohub,2013-05-04 06:47:00,
2013-05-04 02:52:00,46.9,43.9,30.09,ENE,71,1.0,3.0,89,0.00,,,0.00,0.0,meteohub,2013-05-04 06:52:00,
2013-05-04 02:57:00,47.1,43.5,30.09,NE,40,2.0,3.0,87,0.00,,,0.00,0.0,meteohub,2013-05-04 06:57:00,
2013-05-04 03:02:00,47.1,43.5,30.09,NNE,30,2.0,2.0,87,0.00,,,0.00,0.0,meteohub,2013-05-04 07:02:00,
2013-05-04 03:07:00,47.3,43.3,30.09,NE,41,1.0,2.0,86,0.00,,,0.00,0.0,meteohub,2013-05-04 07:07:00,
2013-05-04 03:12:00,47.3,43.3,30.09,NE,41,0.0,2.0,86,0.00,,,0.00,0.0,meteohub,2013-05-04 07:12:00,
2013-05-04 03:17:00,47.1,43.2,30.09,NE,40,0.0,2.0,86,0.00,,,0.00,0.0,meteohub,2013-05-04 07:17:00,
2013-05-04 03:22:00,47.3,43.3,30.09,East,86,0.0,2.0,86,0.00,,,0.00,0.0,meteohub,2013-05-04 07:22:00,
2013-05-04 03:27:00,47.3,43.0,30.09,SE,142,1.0,3.0,85,0.00,,,0.00,0.0,meteohub,2013-05-04 07:27:00,
2013-05-04 03:32:00,47.1,42.8,30.09,SE,142,0.0,3.0,85,0.00,,,0.00,0.0,meteohub,2013-05-04 07:32:00,
2013-05-04 03:37:00,47.1,42.8,30.08,SE,142,1.0,3.0,85,0.00,,,0.00,0.0,meteohub,2013-05-04 07:37:00,
2013-05-04 03:42:00,47.3,43.0,30.08,SSE,157,1.0,2.0,85,0.00,,,0.00,0.0,meteohub,2013-05-04 07:42:00,
2013-05-04 03:47:00,47.7,43.0,30.08,SSE,167,1.0,2.0,84,0.00,,,0.00,0.0,meteohub,2013-05-04 07:47:00,
2013-05-04 03:52:00,47.8,43.0,30.08,SSE,166,1.0,3.0,83,0.00,,,0.00,0.0,meteohub,2013-05-04 07:52:00,
2013-05-04 03:57:00,48.0,43.2,30.08,SSE,159,0.0,3.0,83,0.00,,,0.00,0.0,meteohub,2013-05-04 07:57:00,
2013-05-04 04:02:00,48.0,42.8,30.08,SSE,159,0.0,2.0,82,0.00,,,0.00,0.0,meteohub,2013-05-04 08:02:00,
2013-05-04 04:07:00,48.0,42.8,30.08,SSE,159,1.0,2.0,82,0.00,,,0.00,0.0,meteohub,2013-05-04 08:07:00,
2013-05-04 04:12:00,48.0,42.8,30.08,SSE,159,0.0,2.0,82,0.00,,,0.00,0.0,meteohub,2013-05-04 08:12:00,
2013-05-04 04:17:00,47.8,42.6,30.08,SSE,159,0.0,1.0,82,0.00,,,0.00,0.0,meteohub,2013-05-04 08:17:00,
2013-05-04 04:22:00,48.0,42.8,30.08,SSE,159,0.0,1.0,82,0.00,,,0.00,0.0,meteohub,2013-05-04 08:22:00,
2013-05-04 04:27:00,48.0,42.8,30.08,SSE,159,0.0,1.0,82,0.00,,,0.00,0.0,meteohub,2013-05-04 08:27:00,
2013-05-04 04:32:00,48.0,42.8,30.09,SSE,159,0.0,2.0,82,0.00,,,0.00,0.0,meteohub,2013-05-04 08:32:00,
2013-05-04 04:37:00,48.0,42.8,30.09,SSE,159,0.0,2.0,82,0.00,,,0.00,0.0,meteohub,2013-05-04 08:37:00,
2013-05-04 04:42:00,48.0,42.8,30.09,SSE,159,1.0,2.0,82,0.00,,,0.00,0.0,meteohub,2013-05-04 08:42:00,
2013-05-04 04:47:00,48.0,42.8,30.09,SSE,155,1.0,2.0,82,0.00,,,0.00,0.0,meteohub,2013-05-04 08:47:00,
2013-05-04 04:52:00,48.0,42.8,30.09,SSE,155,0.0,2.0,82,0.00,,,0.00,0.0,meteohub,2013-05-04 08:52:00,
2013-05-04 04:57:00,48.0,42.8,30.09,SSE,155,0.0,2.0,82,0.00,,,0.00,0.0,meteohub,2013-05-04 08:57:00,
2013-05-04 05:02:00,48.0,42.8,30.09,SSE,155,1.0,2.0,82,0.00,,,0.00,0.0,meteohub,2013-05-04 09:02:00,
2013-05-04 05:07:00,48.0,42.8,30.09,SE,144,0.0,1.0,82,0.00,,,0.00,0.0,meteohub,2013-05-04 09:07:00,
2013-05-04 05:12:00,48.0,42.8,30.09,SE,144,0.0,2.0,82,0.00,,,0.00,0.0,meteohub,2013-05-04 09:12:00,
2013-05-04 05:17:00,48.0,42.4,30.09,SE,138,0.0,2.0,81,0.00,,,0.00,0.0,meteohub,2013-05-04 09:17:00,
2013-05-04 05:22:00,48.0,42.8,30.09,SE,138,1.0,2.0,82,0.00,,,0.00,0.0,meteohub,2013-05-04 09:22:00,
2013-05-04 05:27:00,48.0,42.4,30.09,SE,138,1.0,2.0,81,0.00,,,0.00,0.0,meteohub,2013-05-04 09:27:00,
2013-05-04 05:32:00,48.2,42.6,30.09,SE,125,0.0,1.0,81,0.00,,,0.00,0.0,meteohub,2013-05-04 09:32:00,
2013-05-04 05:37:00,48.2,42.6,30.09,SE,125,0.0,2.0,81,0.00,,,0.00,0.0,meteohub,2013-05-04 09:37:00,
2013-05-04 05:42:00,48.2,42.6,30.09,SE,140,0.0,2.0,81,0.00,,,0.00,0.0,meteohub,2013-05-04 09:42:00,
2013-05-04 05:47:00,48.2,42.6,30.09,SE,140,0.0,2.0,81,0.00,,,0.00,0.0,meteohub,2013-05-04 09:47:00,
2013-05-04 05:52:00,48.0,42.4,30.09,SE,140,1.0,2.0,81,0.00,,,0.00,0.0,meteohub,2013-05-04 09:52:00,
2013-05-04 05:57:00,48.0,42.4,30.09,SE,138,0.0,1.0,81,0.00,,,0.00,0.0,meteohub,2013-05-04 09:57:00,
2013-05-04 06:02:00,48.0,42.4,30.09,SE,142,1.0,2.0,81,0.00,,,0.00,0.0,meteohub,2013-05-04 10:02:00,
2013-05-04 06:08:00,48.0,42.8,30.09,SE,128,2.0,2.0,82,0.00,,,0.00,0.0,meteohub,2013-05-04 10:08:00,
2013-05-04 06:13:00,48.2,43.0,30.09,SE,133,0.0,2.0,82,0.00,,,0.00,0.0,meteohub,2013-05-04 10:13:00,
2013-05-04 06:18:00,48.2,42.6,30.09,SE,141,1.0,2.0,81,0.00,,,0.00,0.0,meteohub,2013-05-04 10:18:00,
2013-05-04 06:23:00,48.4,42.8,30.09,SE,146,0.0,2.0,81,0.00,,,0.00,5.0,meteohub,2013-05-04 10:23:00,
2013-05-04 06:28:00,48.4,42.8,30.09,SSE,152,1.0,2.0,81,0.00,,,0.00,11.0,meteohub,2013-05-04 10:28:00,
2013-05-04 06:33:00,48.6,43.0,30.09,SSE,154,1.0,2.0,81,0.00,,,0.00,16.0,meteohub,2013-05-04 10:33:00,
2013-05-04 06:38:00,48.6,43.0,30.09,SSE,157,2.0,2.0,81,0.00,,,0.00,23.0,meteohub,2013-05-04 10:38:00,
2013-05-04 06:43:00,48.6,43.0,30.09,SSE,156,0.0,2.0,81,0.00,,,0.00,28.0,meteohub,2013-05-04 10:43:00,
2013-05-04 06:48:00,48.7,43.2,30.09,SE,144,0.0,3.0,81,0.00,,,0.00,35.0,meteohub,2013-05-04 10:48:00,
2013-05-04 06:53:00,48.9,43.3,30.09,SE,136,0.0,3.0,81,0.00,,,0.00,46.0,meteohub,2013-05-04 10:53:00,
2013-05-04 06:58:00,49.1,43.2,30.09,SE,136,0.0,2.0,80,0.00,,,0.00,63.0,meteohub,2013-05-04 10:58:00,
2013-05-04 07:03:00,49.5,43.5,30.09,SE,136,0.0,2.0,80,0.00,,,0.00,74.0,meteohub,2013-05-04 11:03:00,
2013-05-04 07:08:00,49.6,43.7,30.09,SE,141,0.0,2.0,80,0.00,,,0.00,81.0,meteohub,2013-05-04 11:08:00,
2013-05-04 07:13:00,50.2,43.9,30.09,SE,141,0.0,2.0,79,0.00,,,0.00,102.0,meteohub,2013-05-04 11:13:00,
2013-05-04 07:18:00,50.5,44.2,30.09,SE,141,0.0,2.0,79,0.00,,,0.00,97.0,meteohub,2013-05-04 11:18:00,
2013-05-04 07:23:00,50.7,44.1,30.09,SE,141,0.0,2.0,78,0.00,,,0.00,118.0,meteohub,2013-05-04 11:23:00,
2013-05-04 07:28:00,51.3,45.0,30.10,SE,141,0.0,1.0,79,0.00,,,0.00,113.0,meteohub,2013-05-04 11:28:00,
2013-05-04 07:33:00,52.0,45.3,30.10,SE,136,0.0,1.0,78,0.00,,,0.00,158.0,meteohub,2013-05-04 11:33:00,
2013-05-04 07:38:00,52.7,45.3,30.09,SE,138,0.0,2.0,76,0.00,,,0.00,165.0,meteohub,2013-05-04 11:38:00,
2013-05-04 07:43:00,53.2,45.5,30.10,SSE,148,1.0,2.0,75,0.00,,,0.00,195.0,meteohub,2013-05-04 11:43:00,
2013-05-04 07:48:00,54.1,45.7,30.10,SE,137,1.0,2.0,73,0.00,,,0.00,209.0,meteohub,2013-05-04 11:48:00,
2013-05-04 07:55:00,54.9,45.7,30.09,ESE,117,2.0,3.0,71,0.00,,,0.00,230.0,meteohub,2013-05-04 11:55:00,
2013-05-04 08:02:00,55.9,45.9,30.09,SSE,161,1.0,4.0,69,0.00,,,0.00,265.0,meteohub,2013-05-04 12:02:00,
2013-05-04 08:07:00,56.1,46.0,30.09,SE,142,1.0,4.0,69,0.00,,,0.00,274.0,meteohub,2013-05-04 12:07:00,
2013-05-04 08:12:00,56.8,46.0,30.09,ESE,119,2.0,4.0,67,0.00,,,0.00,287.0,meteohub,2013-05-04 12:12:00,
2013-05-04 08:17:00,57.4,46.0,30.09,SE,136,1.0,4.0,66,0.00,,,0.00,288.0,meteohub,2013-05-04 12:17:00,
2013-05-04 08:22:00,57.7,46.4,30.09,SSE,153,2.0,4.0,66,0.00,,,0.00,311.0,meteohub,2013-05-04 12:22:00,
2013-05-04 08:31:00,58.3,46.9,30.09,SE,131,2.0,4.0,66,0.00,,,0.00,327.0,meteohub,2013-05-04 12:31:00,
2013-05-04 08:37:00,60.1,48.2,30.10,SE,144,0.0,5.0,65,0.00,,,0.00,360.0,meteohub,2013-05-04 12:37:00,
2013-05-04 08:42:00,61.0,48.4,30.10,ESE,114,1.0,5.0,63,0.00,,,0.00,378.0,meteohub,2013-05-04 12:42:00,
2013-05-04 08:47:00,60.6,47.5,30.10,ESE,114,1.0,5.0,62,0.00,,,0.00,390.0,meteohub,2013-05-04 12:47:00,
2013-05-04 08:52:00,61.3,47.8,30.10,SE,138,1.0,6.0,61,0.00,,,0.00,406.0,meteohub,2013-05-04 12:52:00,
2013-05-04 08:57:00,62.1,48.4,30.10,SSE,149,1.0,6.0,61,0.00,,,0.00,418.0,meteohub,2013-05-04 12:57:00,
2013-05-04 09:02:00,63.0,48.4,30.10,East,82,2.0,4.0,59,0.00,,,0.00,411.0,meteohub,2013-05-04 13:02:00,
2013-05-04 09:04:00,63.0,48.4,30.10,SE,144,1.0,4.0,59,0.00,,,0.00,422.0,meteohub,2013-05-04 13:04:00,
2013-05-04 09:09:00,63.0,48.0,30.10,ENE,73,3.0,4.0,58,0.00,,,0.00,434.0,meteohub,2013-05-04 13:09:00,
2013-05-04 09:14:00,63.0,48.4,30.10,East,84,2.0,4.0,59,0.00,,,0.00,438.0,meteohub,2013-05-04 13:14:00,
2013-05-04 09:19:00,63.7,48.2,30.10,SE,141,0.0,4.0,57,0.00,,,0.00,448.0,meteohub,2013-05-04 13:19:00,
2013-05-04 09:24:00,64.6,48.6,30.10,East,96,1.0,3.0,56,0.00,,,0.00,464.0,meteohub,2013-05-04 13:24:00,
2013-05-04 09:29:00,64.9,47.8,30.10,ESE,122,1.0,4.0,54,0.00,,,0.00,480.0,meteohub,2013-05-04 13:29:00,
2013-05-04 09:34:00,64.8,48.7,30.10,East,80,3.0,4.0,56,0.00,,,0.00,466.0,meteohub,2013-05-04 13:34:00,
2013-05-04 09:39:00,65.8,49.3,30.10,ESE,104,1.0,5.0,55,0.00,,,0.00,538.0,meteohub,2013-05-04 13:39:00,
2013-05-04 09:44:00,66.0,48.4,30.10,East,86,5.0,5.0,53,0.00,,,0.00,540.0,meteohub,2013-05-04 13:44:00,
2013-05-04 09:49:00,65.5,48.4,30.10,SSE,159,2.0,5.0,54,0.00,,,0.00,578.0,meteohub,2013-05-04 13:49:00,
2013-05-04 09:54:00,65.1,48.6,30.10,East,92,2.0,7.0,55,0.00,,,0.00,522.0,meteohub,2013-05-04 13:54:00,
2013-05-04 09:59:00,65.5,48.4,30.09,East,92,3.0,7.0,54,0.00,,,0.00,526.0,meteohub,2013-05-04 13:59:00,
2013-05-04 10:04:00,65.3,48.2,30.10,East,95,3.0,7.0,54,0.00,,,0.00,524.0,meteohub,2013-05-04 14:04:00,
2013-05-04 10:09:00,65.8,49.3,30.09,ESE,120,2.0,7.0,55,0.00,,,0.00,596.0,meteohub,2013-05-04 14:09:00,
2013-05-04 10:14:00,66.0,47.8,30.10,NE,44,1.0,5.0,52,0.00,,,0.00,603.0,meteohub,2013-05-04 14:14:00,
2013-05-04 10:19:00,67.1,49.5,30.10,ESE,111,2.0,6.0,53,0.00,,,0.00,629.0,meteohub,2013-05-04 14:19:00,
2013-05-04 10:24:00,66.9,49.3,30.10,SE,138,3.0,6.0,53,0.00,,,0.00,610.0,meteohub,2013-05-04 14:24:00,
2013-05-04 10:29:00,67.3,49.1,30.10,ENE,59,2.0,6.0,52,0.00,,,0.00,573.0,meteohub,2013-05-04 14:29:00,
2013-05-04 10:34:00,66.9,49.8,30.10,ESE,107,3.0,5.0,54,0.00,,,0.00,647.0,meteohub,2013-05-04 14:34:00,
2013-05-04 10:39:00,67.6,49.5,30.10,East,88,6.0,7.0,52,0.00,,,0.00,707.0,meteohub,2013-05-04 14:39:00,
2013-05-04 10:44:00,67.6,50.4,30.10,ENE,60,5.0,7.0,54,0.00,,,0.00,719.0,meteohub,2013-05-04 14:44:00,
2013-05-04 10:49:00,67.6,48.9,30.09,East,91,5.0,8.0,51,0.00,,,0.00,629.0,meteohub,2013-05-04 14:49:00,
2013-05-04 10:54:00,68.2,50.4,30.09,ENE,59,8.0,8.0,53,0.00,,,0.00,710.0,meteohub,2013-05-04 14:54:00,
2013-05-04 10:59:00,67.6,49.5,30.09,East,90,5.0,7.0,52,0.00,,,0.00,751.0,meteohub,2013-05-04 14:59:00,
2013-05-04 11:04:00,68.7,49.3,30.10,SSE,147,1.0,8.0,50,0.00,,,0.00,719.0,meteohub,2013-05-04 15:04:00,
2013-05-04 11:09:00,70.0,49.5,30.09,ENE,69,5.0,8.0,48,0.00,,,0.00,652.0,meteohub,2013-05-04 15:09:00,
2013-05-04 11:14:00,69.6,50.2,30.09,NE,39,4.0,8.0,50,0.00,,,0.00,763.0,meteohub,2013-05-04 15:14:00,
2013-05-04 11:19:00,70.0,49.5,30.10,East,86,3.0,7.0,48,0.00,,,0.00,668.0,meteohub,2013-05-04 15:19:00,
2013-05-04 11:24:00,70.0,49.5,30.09,ESE,123,1.0,8.0,48,0.00,,,0.00,719.0,meteohub,2013-05-04 15:24:00,
2013-05-04 11:29:00,70.5,50.9,30.09,NE,47,5.0,8.0,50,0.00,,,0.00,721.0,meteohub,2013-05-04 15:29:00,
2013-05-04 11:34:00,69.4,50.0,30.09,NNE,24,3.0,8.0,50,0.00,,,0.00,812.0,meteohub,2013-05-04 15:34:00,
2013-05-04 11:39:00,69.4,51.1,30.09,North,355,4.0,7.0,52,0.00,,,0.00,875.0,meteohub,2013-05-04 15:39:00,
2013-05-04 11:44:00,68.2,50.9,30.09,NNE,24,2.0,7.0,54,0.00,,,0.00,798.0,meteohub,2013-05-04 15:44:00,
2013-05-04 11:49:00,67.5,48.7,30.10,North,5,3.0,7.0,51,0.00,,,0.00,708.0,meteohub,2013-05-04 15:49:00,
2013-05-04 11:54:00,66.6,48.4,30.10,North,355,3.0,7.0,52,0.00,,,0.00,791.0,meteohub,2013-05-04 15:54:00,
2013-05-04 11:59:00,66.0,48.4,30.10,NW,321,4.0,7.0,53,0.00,,,0.00,828.0,meteohub,2013-05-04 15:59:00,
2013-05-04 12:04:00,66.2,48.6,30.10,North,355,3.0,7.0,53,0.00,,,0.00,824.0,meteohub,2013-05-04 16:04:00,
2013-05-04 12:09:00,67.3,49.1,30.10,NW,322,3.0,7.0,52,0.00,,,0.00,821.0,meteohub,2013-05-04 16:09:00,
2013-05-04 12:14:00,67.1,48.9,30.10,NW,319,3.0,7.0,52,0.00,,,0.00,838.0,meteohub,2013-05-04 16:14:00,
2013-05-04 12:19:00,67.5,49.3,30.10,NNE,13,7.0,7.0,52,0.00,,,0.00,826.0,meteohub,2013-05-04 16:19:00,
2013-05-04 12:24:00,66.9,49.3,30.09,NNW,329,2.0,5.0,53,0.00,,,0.00,712.0,meteohub,2013-05-04 16:24:00,
2013-05-04 12:29:00,66.9,48.7,30.09,NNW,332,2.0,8.0,52,0.00,,,0.00,745.0,meteohub,2013-05-04 16:29:00,
2013-05-04 12:34:00,66.2,48.6,30.10,NNW,329,2.0,8.0,53,0.00,,,0.00,638.0,meteohub,2013-05-04 16:34:00,
2013-05-04 12:40:00,65.7,48.6,30.10,NNW,332,3.0,8.0,54,0.00,,,0.00,592.0,meteohub,2013-05-04 16:40:00,
2013-05-04 12:44:00,64.9,47.8,30.09,North,355,3.0,4.0,54,0.00,,,0.00,619.0,meteohub,2013-05-04 16:44:00,
2013-05-04 12:49:00,64.0,47.5,30.10,North,10,2.0,5.0,55,0.00,,,0.00,668.0,meteohub,2013-05-04 16:49:00,
2013-05-04 12:55:00,64.2,48.7,30.10,NNW,338,3.0,6.0,57,0.00,,,0.00,731.0,meteohub,2013-05-04 16:55:00,
2013-05-04 13:00:00,64.0,47.5,30.09,NNW,340,3.0,6.0,55,0.00,,,0.00,814.0,meteohub,2013-05-04 17:00:00,
2013-05-04 13:05:00,64.0,48.0,30.09,NNW,328,4.0,6.0,56,0.00,,,0.00,826.0,meteohub,2013-05-04 17:05:00,
2013-05-04 13:10:00,63.7,48.2,30.10,NE,44,4.0,6.0,57,0.00,,,0.00,830.0,meteohub,2013-05-04 17:10:00,
2013-05-04 13:15:00,64.6,47.5,30.09,NNE,13,2.0,6.0,54,0.00,,,0.00,816.0,meteohub,2013-05-04 17:15:00,
2013-05-04 13:20:00,64.2,48.2,30.09,NNE,13,3.0,7.0,56,0.00,,,0.00,823.0,meteohub,2013-05-04 17:20:00,
2013-05-04 13:25:00,64.6,48.6,30.09,North,5,2.0,7.0,56,0.00,,,0.00,775.0,meteohub,2013-05-04 17:25:00,
2013-05-04 13:30:00,65.5,48.9,30.09,North,5,3.0,7.0,55,0.00,,,0.00,791.0,meteohub,2013-05-04 17:30:00,
2013-05-04 13:35:00,66.4,49.3,30.09,NE,34,3.0,7.0,54,0.00,,,0.00,830.0,meteohub,2013-05-04 17:35:00,
2013-05-04 13:40:00,67.5,49.8,30.09,NNE,28,3.0,5.0,53,0.00,,,0.00,816.0,meteohub,2013-05-04 17:40:00,
2013-05-04 13:45:00,68.7,50.4,30.09,NNW,343,2.0,5.0,52,0.00,,,0.00,744.0,meteohub,2013-05-04 17:45:00,
2013-05-04 13:50:00,70.3,50.4,30.08,NNE,19,3.0,5.0,49,0.00,,,0.00,691.0,meteohub,2013-05-04 17:50:00,
2013-05-04 13:55:00,72.1,49.6,30.08,East,83,9.0,12.0,45,0.00,,,0.00,698.0,meteohub,2013-05-04 17:55:00,
2013-05-04 14:00:00,72.3,48.6,30.09,ENE,72,7.0,12.0,43,0.00,,,0.00,770.0,meteohub,2013-05-04 18:00:00,
2013-05-04 14:05:00,72.1,48.4,30.09,ENE,69,9.0,14.0,43,0.00,,,0.00,700.0,meteohub,2013-05-04 18:05:00,
2013-05-04 14:10:00,72.0,48.9,30.09,ENE,68,5.0,14.0,44,0.00,,,0.00,628.0,meteohub,2013-05-04 18:10:00,
2013-05-04 14:15:00,70.5,46.9,30.08,East,88,5.0,16.0,43,0.00,,,0.00,717.0,meteohub,2013-05-04 18:15:00,
2013-05-04 14:20:00,71.1,47.5,30.08,East,95,11.0,16.0,43,0.00,,,0.00,722.0,meteohub,2013-05-04 18:20:00,
2013-05-04 14:25:00,70.7,47.7,30.08,East,86,8.0,16.0,44,0.00,,,0.00,838.0,meteohub,2013-05-04 18:25:00,
2013-05-04 14:30:00,71.8,48.7,30.08,ENE,61,4.0,16.0,44,0.00,,,0.00,868.0,meteohub,2013-05-04 18:30:00,
2013-05-04 14:35:00,71.8,48.0,30.08,ENE,66,8.0,16.0,43,0.00,,,0.00,947.0,meteohub,2013-05-04 18:35:00,
2013-05-04 14:40:00,71.2,48.2,30.08,East,80,8.0,20.0,44,0.00,,,0.00,888.0,meteohub,2013-05-04 18:40:00,
2013-05-04 14:45:00,71.1,47.5,30.07,ENE,58,9.0,20.0,43,0.00,,,0.00,889.0,meteohub,2013-05-04 18:45:00,
2013-05-04 14:50:00,71.8,47.5,30.07,East,88,7.0,20.0,42,0.00,,,0.00,837.0,meteohub,2013-05-04 18:50:00,
2013-05-04 14:55:00,71.2,46.4,30.07,East,82,8.0,21.0,41,0.00,,,0.00,870.0,meteohub,2013-05-04 18:55:00,
2013-05-04 15:00:00,72.7,47.7,30.07,East,101,7.0,21.0,41,0.00,,,0.00,838.0,meteohub,2013-05-04 19:00:00,
2013-05-04 15:06:00,72.1,47.1,30.07,ENE,70,13.0,21.0,41,0.00,,,0.00,879.0,meteohub,2013-05-04 19:06:00,
2013-05-04 15:11:00,72.0,46.9,30.07,East,101,9.0,15.0,41,0.00,,,0.00,875.0,meteohub,2013-05-04 19:11:00,
2013-05-04 15:16:00,72.3,46.6,30.06,East,99,10.0,21.0,40,0.00,,,0.00,875.0,meteohub,2013-05-04 19:16:00,
2013-05-04 15:21:00,72.0,46.9,30.06,ENE,71,11.0,21.0,41,0.00,,,0.00,846.0,meteohub,2013-05-04 19:21:00,
2013-05-04 15:26:00,71.6,46.0,30.06,ESE,107,13.0,19.0,40,0.00,,,0.00,840.0,meteohub,2013-05-04 19:26:00,
2013-05-04 15:31:00,72.7,46.9,30.06,ENE,78,5.0,19.0,40,0.00,,,0.00,814.0,meteohub,2013-05-04 19:31:00,
2013-05-04 15:36:00,72.1,46.4,30.06,ESE,122,5.0,19.0,40,0.00,,,0.00,831.0,meteohub,2013-05-04 19:36:00,
2013-05-04 15:41:00,71.8,46.2,30.06,ESE,107,12.0,19.0,40,0.00,,,0.00,817.0,meteohub,2013-05-04 19:41:00,
2013-05-04 15:46:00,71.4,45.9,30.05,NE,50,9.0,19.0,40,0.00,,,0.00,747.0,meteohub,2013-05-04 19:46:00,
2013-05-04 15:51:00,71.8,46.2,30.05,East,99,11.0,19.0,40,0.00,,,0.00,782.0,meteohub,2013-05-04 19:51:00,
2013-05-04 15:56:00,72.1,45.9,30.05,East,92,13.0,19.0,39,0.00,,,0.00,717.0,meteohub,2013-05-04 19:56:00,
2013-05-04 16:01:00,72.3,46.0,30.05,East,88,15.0,19.0,39,0.00,,,0.00,747.0,meteohub,2013-05-04 20:01:00,
2013-05-04 16:06:00,72.1,46.4,30.05,East,91,9.0,22.0,40,0.00,,,0.00,761.0,meteohub,2013-05-04 20:06:00,
2013-05-04 16:11:00,72.0,46.4,30.05,ESE,117,9.0,22.0,40,0.00,,,0.00,703.0,meteohub,2013-05-04 20:11:00,
2013-05-04 16:16:00,72.0,46.4,30.05,East,84,3.0,22.0,40,0.00,,,0.00,661.0,meteohub,2013-05-04 20:16:00,
2013-05-04 16:21:00,72.0,46.4,30.05,ENE,57,10.0,20.0,40,0.00,,,0.00,696.0,meteohub,2013-05-04 20:21:00,
2013-05-04 16:26:00,71.8,45.5,30.05,East,90,11.0,20.0,39,0.00,,,0.00,248.0,meteohub,2013-05-04 20:26:00,
2013-05-04 16:31:00,71.2,46.4,30.04,ENE,78,12.0,18.0,41,0.00,,,0.00,686.0,meteohub,2013-05-04 20:31:00,
2013-05-04 16:36:00,71.6,45.3,30.04,East,83,10.0,19.0,39,0.00,,,0.00,643.0,meteohub,2013-05-04 20:36:00,
2013-05-04 16:41:00,71.4,45.1,30.04,ENE,76,14.0,23.0,39,0.00,,,0.00,647.0,meteohub,2013-05-04 20:41:00,
2013-05-04 16:46:00,72.3,44.6,30.04,ENE,74,7.0,23.0,37,0.00,,,0.00,628.0,meteohub,2013-05-04 20:46:00,
2013-05-04 16:51:00,72.3,44.6,30.04,East,93,6.0,23.0,37,0.00,,,0.00,592.0,meteohub,2013-05-04 20:51:00,
2013-05-04 16:56:00,72.3,44.6,30.04,East,100,13.0,20.0,37,0.00,,,0.00,575.0,meteohub,2013-05-04 20:56:00,
2013-05-04 17:01:00,72.5,44.1,30.04,ENE,71,9.0,20.0,36,0.00,,,0.00,536.0,meteohub,2013-05-04 21:01:00,
2013-05-04 17:06:00,72.9,45.1,30.04,ENE,59,12.0,20.0,37,0.00,,,0.00,496.0,meteohub,2013-05-04 21:06:00,
2013-05-04 17:11:00,73.0,43.7,30.04,East,98,11.0,19.0,35,0.00,,,0.00,415.0,meteohub,2013-05-04 21:11:00,
2013-05-04 17:17:00,72.7,43.5,30.04,East,93,13.0,18.0,35,0.00,,,0.00,323.0,meteohub,2013-05-04 21:17:00,
2013-05-04 17:22:00,72.1,43.0,30.04,ESE,111,13.0,19.0,35,0.00,,,0.00,283.0,meteohub,2013-05-04 21:22:00,
2013-05-04 17:27:00,72.1,43.7,30.04,East,97,14.0,19.0,36,0.00,,,0.00,278.0,meteohub,2013-05-04 21:27:00,
2013-05-04 17:32:00,72.5,44.8,30.04,ENE,77,4.0,18.0,37,0.00,,,0.00,251.0,meteohub,2013-05-04 21:32:00,
2013-05-04 17:37:00,72.9,44.4,30.04,East,89,6.0,18.0,36,0.00,,,0.00,156.0,meteohub,2013-05-04 21:37:00,
2013-05-04 17:42:00,72.9,45.1,30.04,East,101,3.0,18.0,37,0.00,,,0.00,134.0,meteohub,2013-05-04 21:42:00,
2013-05-04 17:47:00,72.9,45.1,30.04,East,96,8.0,18.0,37,0.00,,,0.00,114.0,meteohub,2013-05-04 21:47:00,
2013-05-04 17:52:00,73.0,45.1,30.04,East,98,11.0,15.0,37,0.00,,,0.00,135.0,meteohub,2013-05-04 21:52:00,
2013-05-04 17:57:00,73.0,44.4,30.04,East,85,10.0,18.0,36,0.00,,,0.00,107.0,meteohub,2013-05-04 21:57:00,
2013-05-04 18:02:00,73.2,45.3,30.04,ENE,72,5.0,18.0,37,0.00,,,0.00,160.0,meteohub,2013-05-04 22:02:00,
2013-05-04 18:07:00,73.2,43.9,30.04,SE,130,2.0,18.0,35,0.00,,,0.00,130.0,meteohub,2013-05-04 22:07:00,
2013-05-04 18:12:00,73.4,44.1,30.04,ESE,103,5.0,18.0,35,0.00,,,0.00,91.0,meteohub,2013-05-04 22:12:00,
2013-05-04 18:17:00,73.4,42.6,30.04,ENE,61,7.0,18.0,33,0.00,,,0.00,83.0,meteohub,2013-05-04 22:17:00,
2013-05-04 18:22:00,73.2,43.2,30.04,ENE,74,8.0,18.0,34,0.00,,,0.00,86.0,meteohub,2013-05-04 22:22:00,
2013-05-04 18:27:00,73.0,42.3,30.04,ESE,119,4.0,18.0,33,0.00,,,0.00,70.0,meteohub,2013-05-04 22:27:00,
2013-05-04 18:32:00,73.0,41.4,30.04,ESE,120,5.0,14.0,32,0.00,,,0.00,70.0,meteohub,2013-05-04 22:32:00,
2013-05-04 18:37:00,72.7,40.3,30.04,SE,132,3.0,17.0,31,0.00,,,0.00,72.0,meteohub,2013-05-04 22:37:00,
2013-05-04 18:42:00,72.1,40.6,30.05,East,82,3.0,17.0,32,0.00,,,0.00,79.0,meteohub,2013-05-04 22:42:00,
2013-05-04 18:47:00,71.8,39.6,30.04,SE,139,3.0,17.0,31,0.00,,,0.00,77.0,meteohub,2013-05-04 22:47:00,
2013-05-04 18:52:00,71.6,39.4,30.04,SE,136,4.0,14.0,31,0.00,,,0.00,100.0,meteohub,2013-05-04 22:52:00,
2013-05-04 18:57:00,71.6,41.0,30.04,NNE,18,2.0,14.0,33,0.00,,,0.00,121.0,meteohub,2013-05-04 22:57:00,
2013-05-04 19:02:00,71.4,38.3,30.05,ESE,103,7.0,12.0,30,0.00,,,0.00,74.0,meteohub,2013-05-04 23:02:00,
2013-05-04 19:07:00,71.2,36.5,30.05,East,97,6.0,13.0,28,0.00,,,0.00,125.0,meteohub,2013-05-04 23:07:00,
2013-05-04 19:12:00,71.2,37.4,30.05,ENE,75,5.0,13.0,29,0.00,,,0.00,63.0,meteohub,2013-05-04 23:12:00,
2013-05-04 19:17:00,71.1,38.1,30.05,ENE,78,4.0,13.0,30,0.00,,,0.00,62.0,meteohub,2013-05-04 23:17:00,
2013-05-04 19:22:00,70.7,36.9,30.05,East,82,2.0,12.0,29,0.00,,,0.00,62.0,meteohub,2013-05-04 23:22:00,
2013-05-04 19:27:00,70.5,37.6,30.05,ESE,118,0.0,11.0,30,0.00,,,0.00,70.0,meteohub,2013-05-04 23:27:00,
2013-05-04 19:32:00,70.3,38.3,30.05,ENE,59,3.0,11.0,31,0.00,,,0.00,58.0,meteohub,2013-05-04 23:32:00,
2013-05-04 19:37:00,70.0,36.3,30.05,ENE,76,8.0,11.0,29,0.00,,,0.00,56.0,meteohub,2013-05-04 23:37:00,
2013-05-04 19:42:00,69.8,36.1,30.05,South,171,2.0,11.0,29,0.00,,,0.00,53.0,meteohub,2013-05-04 23:42:00,
2013-05-04 19:47:00,69.6,36.9,30.05,SSE,153,3.0,10.0,30,0.00,,,0.00,51.0,meteohub,2013-05-04 23:47:00,
2013-05-04 19:52:00,69.4,35.8,30.05,ENE,73,8.0,10.0,29,0.00,,,0.00,46.0,meteohub,2013-05-04 23:52:00,
2013-05-04 19:57:00,69.3,35.6,30.05,South,175,3.0,9.0,29,0.00,,,0.00,37.0,meteohub,2013-05-04 23:57:00,
2013-05-04 20:02:00,68.9,37.0,30.06,South,188,2.0,10.0,31,0.00,,,0.00,32.0,meteohub,2013-05-05 00:02:00,
2013-05-04 20:07:00,68.5,36.0,30.06,ESE,103,1.0,10.0,30,0.00,,,0.00,26.0,meteohub,2013-05-05 00:07:00,
2013-05-04 20:12:00,68.0,36.3,30.06,East,88,3.0,10.0,31,0.00,,,0.00,23.0,meteohub,2013-05-05 00:12:00,
2013-05-04 20:17:00,67.6,36.0,30.06,SE,136,6.0,10.0,31,0.00,,,0.00,19.0,meteohub,2013-05-05 00:17:00,
2013-05-04 20:22:00,67.3,35.6,30.06,ESE,106,3.0,10.0,31,0.00,,,0.00,16.0,meteohub,2013-05-05 00:22:00,
2013-05-04 20:28:00,66.9,36.1,30.06,ESE,122,2.0,7.0,32,0.00,,,0.00,12.0,meteohub,2013-05-05 00:28:00,
2013-05-04 20:33:00,66.6,36.5,30.06,ESE,109,2.0,8.0,33,0.00,,,0.00,9.0,meteohub,2013-05-05 00:33:00,
2013-05-04 20:38:00,66.0,36.1,30.06,SE,134,1.0,8.0,33,0.00,,,0.00,5.0,meteohub,2013-05-05 00:38:00,
2013-05-04 20:43:00,65.7,35.1,30.06,SE,144,4.0,8.0,32,0.00,,,0.00,0.0,meteohub,2013-05-05 00:43:00,
2013-05-04 20:48:00,65.3,34.7,30.06,ESE,121,3.0,8.0,32,0.00,,,0.00,0.0,meteohub,2013-05-05 00:48:00,
2013-05-04 20:53:00,64.9,34.3,30.07,SE,133,2.0,8.0,32,0.00,,,0.00,0.0,meteohub,2013-05-05 00:53:00,
2013-05-04 20:58:00,64.8,34.2,30.07,SSE,155,1.0,8.0,32,0.00,,,0.00,0.0,meteohub,2013-05-05 00:58:00,
2013-05-04 21:03:00,64.4,34.7,30.07,SE,127,2.0,9.0,33,0.00,,,0.00,0.0,meteohub,2013-05-05 01:03:00,
2013-05-04 21:08:00,64.0,35.1,30.07,South,188,2.0,9.0,34,0.00,,,0.00,0.0,meteohub,2013-05-05 01:08:00,
2013-05-04 21:13:00,63.7,35.6,30.07,SSE,168,2.0,9.0,35,0.00,,,0.00,0.0,meteohub,2013-05-05 01:13:00,
2013-05-04 21:18:00,63.1,35.8,30.08,SE,126,0.0,8.0,36,0.00,,,0.00,0.0,meteohub,2013-05-05 01:18:00,
2013-05-04 21:23:00,63.0,37.0,30.08,East,98,3.0,8.0,38,0.00,,,0.00,0.0,meteohub,2013-05-05 01:23:00,
2013-05-04 21:28:00,62.4,36.5,30.08,SSE,150,2.0,7.0,38,0.00,,,0.00,0.0,meteohub,2013-05-05 01:28:00,
2013-05-04 21:33:00,62.1,37.4,30.08,SE,134,2.0,7.0,40,0.00,,,0.00,0.0,meteohub,2013-05-05 01:33:00,
2013-05-04 21:38:00,61.9,38.5,30.09,East,79,3.0,7.0,42,0.00,,,0.00,0.0,meteohub,2013-05-05 01:38:00,
2013-05-04 21:43:00,61.3,39.2,30.09,SE,125,1.0,9.0,44,0.00,,,0.00,0.0,meteohub,2013-05-05 01:43:00,
2013-05-04 21:48:00,61.2,39.0,30.09,SE,126,1.0,9.0,44,0.00,,,0.00,0.0,meteohub,2013-05-05 01:48:00,
2013-05-04 21:53:00,60.8,39.4,30.09,SE,127,0.0,7.0,45,0.00,,,0.00,0.0,meteohub,2013-05-05 01:53:00,
2013-05-04 21:58:00,60.4,39.6,30.09,SSE,152,1.0,5.0,46,0.00,,,0.00,0.0,meteohub,2013-05-05 01:58:00,
2013-05-04 22:03:00,60.4,40.1,30.09,SE,125,2.0,5.0,47,0.00,,,0.00,0.0,meteohub,2013-05-05 02:03:00,
2013-05-04 22:08:00,60.3,39.9,30.09,ESE,113,2.0,5.0,47,0.00,,,0.00,0.0,meteohub,2013-05-05 02:08:00,
2013-05-04 22:13:00,59.9,40.1,30.09,South,183,2.0,8.0,48,0.00,,,0.00,0.0,meteohub,2013-05-05 02:13:00,
2013-05-04 22:18:00,59.5,40.3,30.09,SSE,160,1.0,8.0,49,0.00,,,0.00,0.0,meteohub,2013-05-05 02:18:00,
2013-05-04 22:23:00,59.4,40.6,30.09,SE,144,0.0,8.0,50,0.00,,,0.00,0.0,meteohub,2013-05-05 02:23:00,
2013-05-04 22:28:00,58.8,40.8,30.09,SE,126,2.0,5.0,51,0.00,,,0.00,0.0,meteohub,2013-05-05 02:28:00,
2013-05-04 22:33:00,58.5,40.5,30.09,SE,140,1.0,5.0,51,0.00,,,0.00,0.0,meteohub,2013-05-05 02:33:00,
2013-05-04 22:38:00,58.3,40.8,30.09,SE,134,1.0,5.0,52,0.00,,,0.00,0.0,meteohub,2013-05-05 02:38:00,
2013-05-04 22:43:00,57.9,40.5,30.09,SE,135,0.0,5.0,52,0.00,,,0.00,0.0,meteohub,2013-05-05 02:43:00,
2013-05-04 22:49:00,57.7,40.6,30.10,SE,135,1.0,5.0,53,0.00,,,0.00,0.0,meteohub,2013-05-05 02:49:00,
2013-05-04 22:53:00,57.6,41.0,30.10,SE,126,1.0,5.0,54,0.00,,,0.00,0.0,meteohub,2013-05-05 02:53:00,
2013-05-04 22:59:00,57.0,40.5,30.10,SE,126,1.0,4.0,54,0.00,,,0.00,0.0,meteohub,2013-05-05 02:59:00,
2013-05-04 23:04:00,56.8,40.8,30.09,SE,140,0.0,4.0,55,0.00,,,0.00,0.0,meteohub,2013-05-05 03:04:00,
2013-05-04 23:09:00,56.5,41.0,30.09,SE,138,1.0,3.0,56,0.00,,,0.00,0.0,meteohub,2013-05-05 03:09:00,
2013-05-04 23:14:00,56.1,40.6,30.10,SE,125,1.0,3.0,56,0.00,,,0.00,0.0,meteohub,2013-05-05 03:14:00,
2013-05-04 23:19:00,55.9,41.0,30.10,SE,134,0.0,3.0,57,0.00,,,0.00,0.0,meteohub,2013-05-05 03:19:00,
2013-05-04 23:24:00,55.8,40.8,30.10,SE,134,0.0,3.0,57,0.00,,,0.00,0.0,meteohub,2013-05-05 03:24:00,
2013-05-04 23:29:00,55.4,40.8,30.10,SE,134,0.0,3.0,58,0.00,,,0.00,0.0,meteohub,2013-05-05 03:29:00,
2013-05-04 23:34:00,54.9,40.8,30.10,SE,134,0.0,2.0,59,0.00,,,0.00,0.0,meteohub,2013-05-05 03:34:00,
2013-05-04 23:39:00,54.7,40.6,30.10,SE,134,0.0,0.0,59,0.00,,,0.00,0.0,meteohub,2013-05-05 03:39:00,
2013-05-04 23:44:00,54.5,40.8,30.10,SE,134,0.0,0.0,60,0.00,,,0.00,0.0,meteohub,2013-05-05 03:44:00,
2013-05-04 23:49:00,54.3,40.8,30.10,SE,134,0.0,1.0,60,0.00,,,0.00,0.0,meteohub,2013-05-05 03:49:00,
2013-05-04 23:54:00,54.0,40.8,30.09,SE,134,0.0,1.0,61,0.00,,,0.00,0.0,meteohub,2013-05-05 03:54:00,
2013-05-04 23:59:00,53.4,40.6,30.09,SE,134,0.0,1.0,62,0.00,,,0.00,0.0,meteohub,2013-05-05 03:59:00,